createdAt,value
2023-03-11T00:01:16.552Z,98048.50
2023-03-11T00:04:18.312Z,98042.66
2023-03-11T00:07:20.220Z,98045.41
2023-03-11T00:10:31.340Z,98047.19
2023-03-11T00:13:33.805Z,98045.50
2023-03-11T00:16:35.741Z,98033.66
2023-03-11T00:19:37.463Z,98044.56
2023-03-11T00:22:42.090Z,98021.34
2023-03-11T00:25:45.855Z,98025.59
2023-03-11T00:28:49.194Z,98021.25
2023-03-11T00:31:50.965Z,98025.78
2023-03-11T00:34:52.771Z,98017.13
2023-03-11T00:38:00.610Z,98006.81
2023-03-11T00:41:02.395Z,98006.81
2023-03-11T00:44:06.341Z,97998.13
2023-03-11T00:47:09.749Z,97985.50
2023-03-11T00:50:17.986Z,97996.66
2023-03-11T00:53:19.719Z,97988.75
2023-03-11T00:56:21.467Z,97979.34
2023-03-11T00:59:23.596Z,97973.19
2023-03-11T01:02:25.433Z,97970.44
2023-03-11T01:05:31.109Z,97957.41
2023-03-11T01:08:33.197Z,97949.50
2023-03-11T01:11:35.350Z,97947.81
2023-03-11T01:14:37.124Z,97935.63
2023-03-11T01:17:38.837Z,97937.28
2023-03-11T01:20:40.643Z,97916.94
2023-03-11T01:23:43.014Z,97929.22
2023-03-11T01:26:46.367Z,97898.81
2023-03-11T01:29:48.056Z,97926.78
2023-03-11T01:32:51.150Z,97911.41
2023-03-11T01:35:53.084Z,97927.00
2023-03-11T01:38:54.798Z,97925.28
2023-03-11T01:41:56.800Z,97914.31
2023-03-11T01:44:59.138Z,97905.78
2023-03-11T01:48:01.052Z,97919.47
2023-03-11T01:51:03.050Z,97914.59
2023-03-11T01:54:10.812Z,97909.72
2023-03-11T01:57:14.425Z,97921.66
2023-03-11T02:00:17.006Z,97912.63
2023-03-11T02:03:31.043Z,97911.38
2023-03-11T02:06:33.714Z,97918.00
2023-03-11T02:09:36.484Z,97915.47
2023-03-11T02:12:38.518Z,97910.34
2023-03-11T02:15:41.013Z,97908.66
2023-03-11T02:18:43.457Z,97911.56
2023-03-11T02:21:45.415Z,97908.19
2023-03-11T02:25:01.690Z,97906.47
2023-03-11T02:28:08.468Z,97897.13
2023-03-11T02:31:11.097Z,97905.66
2023-03-11T02:34:23.649Z,97902.19
2023-03-11T02:37:25.563Z,97882.47
2023-03-11T02:40:51.818Z,97889.22
2023-03-11T02:43:56.780Z,97881.63
2023-03-11T02:47:00.289Z,97883.31
2023-03-11T02:50:02.834Z,97877.59
2023-03-11T02:53:06.794Z,97886.78
2023-03-11T02:56:08.533Z,97889.50
2023-03-11T02:59:10.553Z,97880.78
2023-03-11T03:02:12.516Z,97873.94
2023-03-11T03:05:15.109Z,97877.50
2023-03-11T03:08:17.346Z,97876.47
2023-03-11T03:11:19.240Z,97870.47
2023-03-11T03:14:21.330Z,97846.44
2023-03-11T03:17:24.812Z,97861.53
2023-03-11T03:20:27.210Z,97846.81
2023-03-11T03:23:37.697Z,97848.31
2023-03-11T03:26:39.549Z,97848.13
2023-03-11T03:29:42.477Z,97832.94
2023-03-11T03:32:44.727Z,97843.81
2023-03-11T03:35:50.133Z,97841.28
2023-03-11T03:38:59.688Z,97819.22
2023-03-11T03:42:06.407Z,97829.91
2023-03-11T03:45:12.081Z,97819.13
2023-03-11T03:48:14.091Z,97829.19
2023-03-11T03:51:19.457Z,97816.22
2023-03-11T03:54:34.651Z,97839.41
2023-03-11T03:57:37.265Z,97824.66
2023-03-11T04:00:40.016Z,97824.75
2023-03-11T04:03:42.145Z,97807.06
2023-03-11T04:06:47.196Z,97815.41
2023-03-11T04:09:49.427Z,97823.38
2023-03-11T04:12:51.593Z,97804.97
2023-03-11T04:15:53.673Z,97827.09
2023-03-11T04:18:55.567Z,97803.41
2023-03-11T04:21:57.432Z,97823.09
2023-03-11T04:25:00.501Z,97808.19
2023-03-11T04:28:02.708Z,97831.25
2023-03-11T04:31:06.127Z,97811.00
2023-03-11T04:34:08.876Z,97821.31
2023-03-11T04:37:12.193Z,97828.97
2023-03-11T04:40:15.173Z,97805.38
2023-03-11T04:43:17.456Z,97822.06
2023-03-11T04:46:20.613Z,97818.38
2023-03-11T04:49:23.214Z,97821.78
2023-03-11T04:52:26.547Z,97819.25
2023-03-11T04:55:28.979Z,97815.66
2023-03-11T04:58:30.944Z,97820.19
2023-03-11T05:01:32.990Z,97820.91
2023-03-11T05:04:38.801Z,97815.84
2023-03-11T05:07:40.805Z,97813.03
2023-03-11T05:10:44.527Z,97818.28
2023-03-11T05:13:47.226Z,97808.84
2023-03-11T05:16:51.166Z,97812.28
2023-03-11T05:19:56.499Z,97823.28
2023-03-11T05:23:03.641Z,97805.34
2023-03-11T05:26:07.715Z,97812.66
2023-03-11T05:29:10.338Z,97813.22
2023-03-11T05:32:13.715Z,97825.53
2023-03-11T05:35:17.174Z,97815.13
2023-03-11T05:38:19.075Z,97823.81
2023-03-11T05:41:21.016Z,97829.00
2023-03-11T05:44:23.295Z,97817.84
2023-03-11T05:47:25.661Z,97822.72
2023-03-11T05:50:28.031Z,97807.41
2023-03-11T05:53:30.447Z,97823.28
2023-03-11T05:56:32.313Z,97812.66
2023-03-11T05:59:35.489Z,97795.22
2023-03-11T06:02:40.940Z,97796.53
2023-03-11T06:05:47.688Z,97793.88
2023-03-11T06:08:50.342Z,97795.13
2023-03-11T06:11:54.420Z,97788.81
2023-03-11T06:14:59.799Z,97798.84
2023-03-11T06:18:02.139Z,97802.66
2023-03-11T06:21:04.665Z,97811.84
2023-03-11T06:24:08.040Z,97812.97
2023-03-11T06:27:11.307Z,97824.75
2023-03-11T06:30:15.755Z,97826.91
2023-03-11T06:33:26.256Z,97824.84
2023-03-11T06:36:28.374Z,97822.63
2023-03-11T06:39:30.168Z,97818.97
2023-03-11T06:42:32.087Z,97807.38
2023-03-11T06:45:34.204Z,97817.34
2023-03-11T06:48:36.482Z,97809.44
2023-03-11T06:51:38.340Z,97818.34
2023-03-11T06:54:40.388Z,97831.03
2023-03-11T06:57:42.453Z,97815.84
2023-03-11T07:00:45.912Z,97802.59
2023-03-11T07:03:49.678Z,97809.41
2023-03-11T07:06:51.617Z,97802.47
2023-03-11T07:09:57.898Z,97803.34
2023-03-11T07:12:59.823Z,97806.31
2023-03-11T07:16:09.558Z,97799.19
2023-03-11T07:19:14.328Z,97805.31
2023-03-11T07:22:16.667Z,97817.28
2023-03-11T07:25:18.666Z,97833.19
2023-03-11T07:28:20.398Z,97839.31
2023-03-11T07:31:25.374Z,97849.53
2023-03-11T07:34:27.233Z,97842.50
2023-03-11T07:37:29.005Z,97816.03
2023-03-11T07:40:30.873Z,97835.06
2023-03-11T07:43:33.386Z,97806.34
2023-03-11T07:46:35.235Z,97808.72
2023-03-11T07:49:37.037Z,97792.13
2023-03-11T07:52:38.841Z,97830.88
2023-03-11T07:55:40.702Z,97845.31
2023-03-11T07:58:45.257Z,97846.34
2023-03-11T08:01:47.582Z,97856.19
2023-03-11T08:04:51.868Z,97844.94
2023-03-11T08:07:53.775Z,97830.69
2023-03-11T08:10:55.930Z,97827.59
2023-03-11T08:13:58.243Z,97825.63
2023-03-11T08:16:59.975Z,97815.59
2023-03-11T08:20:01.792Z,97814.91
2023-03-11T08:23:03.864Z,97816.84
2023-03-11T08:26:07.330Z,97830.16
2023-03-11T08:29:09.068Z,97831.22
2023-03-11T08:32:10.992Z,97864.09
2023-03-11T08:35:13.147Z,97866.00
2023-03-11T08:38:15.176Z,97879.94
2023-03-11T08:41:17.029Z,97820.00
2023-03-11T08:44:18.698Z,97855.44
2023-03-11T08:47:20.612Z,97871.59
2023-03-11T08:50:22.396Z,97869.88
2023-03-11T08:53:25.079Z,97866.34
2023-03-11T08:56:27.218Z,97872.31
2023-03-11T08:59:32.374Z,97877.97
2023-03-11T09:02:34.324Z,97878.16
2023-03-11T09:05:36.940Z,97890.84
2023-03-11T09:08:38.798Z,97897.28
2023-03-11T09:11:41.734Z,97903.75
2023-03-11T09:14:44.083Z,97907.50
2023-03-11T09:17:46.055Z,97902.50
2023-03-11T09:20:47.932Z,97923.81
2023-03-11T09:23:49.825Z,97932.72
2023-03-11T09:26:51.610Z,97910.34
2023-03-11T09:29:53.274Z,97925.56
2023-03-11T09:32:55.101Z,97929.13
2023-03-11T09:35:58.532Z,97936.25
2023-03-11T09:39:01.246Z,97922.31
2023-03-11T09:42:15.496Z,97944.72
2023-03-11T09:45:27.617Z,97945.56
2023-03-11T09:48:57.362Z,97948.19
2023-03-11T09:52:05.141Z,97937.69
2023-03-11T09:55:22.047Z,97907.44
2023-03-11T09:58:29.773Z,97937.28
2023-03-11T10:01:42.822Z,97934.09
2023-03-11T10:05:06.777Z,97951.19
2023-03-11T10:08:33.103Z,97956.28
2023-03-11T10:11:50.978Z,97983.72
2023-03-11T10:15:07.751Z,98002.97
2023-03-11T10:18:35.631Z,98001.59
2023-03-11T10:22:06.594Z,98010.06
2023-03-11T10:25:24.438Z,98004.84
2023-03-11T10:28:37.323Z,98004.59
2023-03-11T10:31:44.039Z,98011.78
2023-03-11T10:34:48.876Z,98007.00
2023-03-11T10:37:55.030Z,98036.56
2023-03-11T10:41:01.434Z,98020.41
2023-03-11T10:44:13.652Z,98017.16
2023-03-11T10:47:19.911Z,98039.38
2023-03-11T10:50:21.717Z,98050.22
2023-03-11T10:53:23.457Z,98052.50
2023-03-11T10:56:31.974Z,98050.91
2023-03-11T10:59:50.523Z,98080.19
2023-03-11T11:02:58.106Z,98105.44
2023-03-11T11:06:19.618Z,98119.16
2023-03-11T11:09:25.739Z,98111.00
2023-03-11T11:12:28.607Z,98113.25
2023-03-11T11:15:33.597Z,98096.56
2023-03-11T11:18:44.201Z,98126.19
2023-03-11T11:21:49.837Z,98141.47
2023-03-11T11:24:54.699Z,98141.16
2023-03-11T11:28:14.720Z,98144.94
2023-03-11T11:31:23.879Z,98158.56
2023-03-11T11:34:34.438Z,98177.13
2023-03-11T11:37:40.120Z,98194.34
2023-03-11T11:40:42.125Z,98193.56
2023-03-11T11:44:01.590Z,98196.41
2023-03-11T11:47:16.370Z,98185.06
2023-03-11T11:50:37.662Z,98206.78
2023-03-11T11:53:54.397Z,98219.25
2023-03-11T11:56:56.665Z,98216.06
2023-03-11T11:59:58.597Z,98224.94
2023-03-11T12:03:26.566Z,98227.72
2023-03-11T12:06:37.052Z,98225.91
2023-03-11T12:09:53.307Z,98231.00
2023-03-11T12:13:30.177Z,98232.09
2023-03-11T12:17:04.484Z,98233.22
2023-03-11T12:20:20.971Z,98247.31
2023-03-11T12:24:07.684Z,98251.50
2023-03-11T12:27:20.134Z,98239.59
2023-03-11T12:30:29.560Z,98270.69
2023-03-11T12:33:37.038Z,98265.69
2023-03-11T12:36:44.636Z,98270.00
2023-03-11T12:39:46.384Z,98287.38
2023-03-11T12:42:48.176Z,98287.44
2023-03-11T12:45:52.165Z,98291.53
2023-03-11T12:49:13.161Z,98306.00
2023-03-11T12:52:14.868Z,98302.25
2023-03-11T12:55:16.573Z,98301.06
2023-03-11T12:58:32.296Z,98306.78
2023-03-11T13:01:47.794Z,98287.53
2023-03-11T13:05:18.722Z,98316.34
2023-03-11T13:08:43.579Z,98317.03
2023-03-11T13:11:48.211Z,98327.03
2023-03-11T13:15:35.823Z,98309.00
2023-03-11T13:18:37.581Z,98323.53
2023-03-11T13:21:39.559Z,98335.19
2023-03-11T13:24:50.156Z,98346.47
2023-03-11T13:27:57.585Z,98351.53
2023-03-11T13:31:25.903Z,98357.44
2023-03-11T13:34:45.942Z,98364.38
2023-03-11T13:38:09.489Z,98364.31
2023-03-11T13:41:24.784Z,98366.19
2023-03-11T13:44:30.206Z,98361.44
2023-03-11T13:47:33.811Z,98369.16
2023-03-11T13:50:44.512Z,98377.22
2023-03-11T13:53:53.501Z,98386.31
2023-03-11T13:56:58.558Z,98372.53
2023-03-11T14:00:28.442Z,98400.69
2023-03-11T14:03:40.548Z,98385.53
2023-03-11T14:06:42.717Z,98396.88
2023-03-11T14:09:44.484Z,98409.84
2023-03-11T14:12:46.881Z,98419.38
2023-03-11T14:15:55.373Z,98419.59
2023-03-11T14:19:15.408Z,98402.38
2023-03-11T14:22:17.249Z,98416.41
2023-03-11T14:25:31.234Z,98424.03
2023-03-11T14:28:40.461Z,98429.03
2023-03-11T14:31:46.821Z,98434.31
2023-03-11T14:34:48.614Z,98427.56
2023-03-11T14:37:50.468Z,98456.38
2023-03-11T14:40:56.492Z,98450.44
2023-03-11T14:43:58.516Z,98460.41
2023-03-11T14:47:11.601Z,98471.25
2023-03-11T14:50:24.414Z,98482.44
2023-03-11T14:53:38.363Z,98488.41
2023-03-11T14:56:44.572Z,98479.91
2023-03-11T14:59:50.004Z,98506.72
2023-03-11T15:03:12.701Z,98510.19
2023-03-11T15:06:17.837Z,98517.56
2023-03-11T15:09:22.814Z,98518.84
2023-03-11T15:12:41.460Z,98525.91
2023-03-11T15:15:45.296Z,98527.69
2023-03-11T15:18:47.327Z,98538.81
2023-03-11T15:21:51.077Z,98540.59
2023-03-11T15:24:56.280Z,98514.34
2023-03-11T15:27:58.269Z,98558.94
2023-03-11T15:31:22.071Z,98566.16
2023-03-11T15:34:35.426Z,98564.13
2023-03-11T15:37:38.428Z,98581.13
2023-03-11T15:40:45.569Z,98572.81
2023-03-11T15:43:49.267Z,98588.25
2023-03-11T15:46:51.570Z,98596.03
2023-03-11T15:49:55.656Z,98587.94
2023-03-11T15:52:58.652Z,98625.00
2023-03-11T15:56:07.688Z,98627.88
2023-03-11T15:59:15.351Z,98643.69
2023-03-11T16:02:26.746Z,98651.66
2023-03-11T16:05:28.998Z,98655.41
2023-03-11T16:08:30.852Z,98672.97
2023-03-11T16:11:33.216Z,98678.38
2023-03-11T16:14:34.920Z,98678.47
2023-03-11T16:17:48.778Z,98678.63
2023-03-11T16:20:54.488Z,98692.69
2023-03-11T16:23:56.266Z,98688.59
2023-03-11T16:26:57.902Z,98698.41
2023-03-11T16:29:59.597Z,98727.34
2023-03-11T16:33:04.371Z,98736.25
2023-03-11T16:36:06.934Z,98745.16
2023-03-11T16:39:09.342Z,98756.00
2023-03-11T16:42:11.116Z,98748.28
2023-03-11T16:45:15.093Z,98759.84
2023-03-11T16:48:17.190Z,98760.75
2023-03-11T16:51:18.982Z,98771.34
2023-03-11T16:54:23.356Z,98781.81
2023-03-11T16:57:25.360Z,98809.63
2023-03-11T17:00:27.251Z,98803.78
2023-03-11T17:03:34.430Z,98798.81
2023-03-11T17:06:43.037Z,98814.59
2023-03-11T17:09:44.762Z,98807.06
2023-03-11T17:12:46.552Z,98815.19
2023-03-11T17:16:02.208Z,98843.75
2023-03-11T17:19:04.108Z,98849.84
2023-03-11T17:22:05.960Z,98861.31
2023-03-11T17:25:08.280Z,98845.81
2023-03-11T17:28:10.559Z,98860.53
2023-03-11T17:31:16.586Z,98878.69
2023-03-11T17:34:18.465Z,98874.44
2023-03-11T17:37:20.703Z,98893.59
2023-03-11T17:40:22.703Z,98874.06
2023-03-11T17:43:25.124Z,98910.13
2023-03-11T17:46:26.977Z,98846.84
2023-03-11T17:49:28.843Z,98917.34
2023-03-11T17:52:30.548Z,98903.69
2023-03-11T17:55:33.805Z,98926.88
2023-03-11T17:58:36.062Z,98896.00
2023-03-11T18:01:38.419Z,98870.31
2023-03-11T18:04:41.986Z,98934.72
2023-03-11T18:07:43.794Z,98928.78
2023-03-11T18:10:50.254Z,98917.84
2023-03-11T18:13:53.191Z,98912.66
2023-03-11T18:16:54.963Z,98953.06
2023-03-11T18:19:58.665Z,98954.00
2023-03-11T18:23:00.583Z,98967.97
2023-03-11T18:26:04.969Z,98976.59
2023-03-11T18:29:06.707Z,98978.50
2023-03-11T18:32:08.498Z,98989.84
2023-03-11T18:35:10.989Z,98989.91
2023-03-11T18:38:12.829Z,99024.59
2023-03-11T18:41:15.710Z,99025.53
2023-03-11T18:44:21.259Z,99033.44
2023-03-11T18:47:22.973Z,99007.00
2023-03-11T18:50:24.858Z,99027.63
2023-03-11T18:53:26.827Z,99035.59
2023-03-11T18:56:31.110Z,99052.81
2023-03-11T18:59:33.011Z,99055.31
2023-03-11T19:02:34.861Z,99038.31
2023-03-11T19:05:47.798Z,99084.81
2023-03-11T19:08:50.796Z,99091.75
2023-03-11T19:11:52.526Z,99089.19
2023-03-11T19:14:54.264Z,99100.47
2023-03-11T19:18:06.270Z,99091.84
2023-03-11T19:21:11.372Z,99085.94
2023-03-11T19:24:14.180Z,99095.47
2023-03-11T19:27:21.856Z,99086.78
2023-03-11T19:30:23.773Z,99105.13
2023-03-11T19:33:26.277Z,99107.81
2023-03-11T19:36:28.297Z,99098.31
2023-03-11T19:39:30.242Z,99122.47
2023-03-11T19:42:53.774Z,99140.63
2023-03-11T19:45:56.943Z,99134.59
2023-03-11T19:48:59.753Z,99135.47
2023-03-11T19:52:02.033Z,99128.53
2023-03-11T19:55:04.731Z,99113.22
2023-03-11T19:58:06.497Z,99122.56
2023-03-11T20:01:16.078Z,99118.41
2023-03-11T20:04:18.026Z,99095.13
2023-03-11T20:07:21.080Z,99144.28
2023-03-11T20:10:22.929Z,99146.91
2023-03-11T20:13:24.831Z,99158.25
2023-03-11T20:16:26.601Z,99122.97
2023-03-11T20:19:28.427Z,99140.13
2023-03-11T20:22:30.266Z,99166.13
2023-03-11T20:25:32.643Z,99161.81
2023-03-11T20:28:34.675Z,99175.69
2023-03-11T20:31:36.687Z,99139.53
2023-03-11T20:34:38.553Z,99198.19
2023-03-11T20:37:40.457Z,99208.59
2023-03-11T20:40:42.260Z,99204.31
2023-03-11T20:43:45.041Z,99213.78
2023-03-11T20:46:47.120Z,99206.91
2023-03-11T20:49:48.966Z,99238.88
2023-03-11T20:52:51.183Z,99256.16
2023-03-11T20:55:53.443Z,99258.69
2023-03-11T20:58:56.560Z,99250.03
2023-03-11T21:01:58.393Z,99235.41
2023-03-11T21:05:00.271Z,99260.47
2023-03-11T21:08:02.246Z,99275.13
2023-03-11T21:11:04.071Z,99280.31
2023-03-11T21:14:06.812Z,99293.25
2023-03-11T21:17:11.077Z,99251.97
2023-03-11T21:20:13.565Z,99259.72
2023-03-11T21:23:15.579Z,99287.28
2023-03-11T21:26:17.784Z,99292.53
2023-03-11T21:29:19.818Z,99289.13
2023-03-11T21:32:22.687Z,99312.53
2023-03-11T21:35:24.597Z,99304.09
2023-03-11T21:38:27.701Z,99342.97
2023-03-11T21:41:29.683Z,99337.91
2023-03-11T21:44:31.620Z,99357.81
2023-03-11T21:47:33.441Z,99357.84
2023-03-11T21:50:36.185Z,99364.00
2023-03-11T21:53:38.166Z,99365.75
2023-03-11T21:56:40.097Z,99368.41
2023-03-11T21:59:41.838Z,99354.66
2023-03-11T22:02:43.780Z,99356.41
2023-03-11T22:05:45.697Z,99373.72
2023-03-11T22:08:47.536Z,99342.72
2023-03-11T22:11:49.373Z,99323.78
2023-03-11T22:14:51.358Z,99370.44
2023-03-11T22:17:53.262Z,99368.72
2023-03-11T22:21:00.557Z,99367.06
2023-03-11T22:24:02.406Z,99328.28
2023-03-11T22:27:04.321Z,99364.47
2023-03-11T22:30:07.261Z,99372.25
2023-03-11T22:33:09.012Z,99394.69
2023-03-11T22:36:10.837Z,99408.56
2023-03-11T22:39:12.622Z,99411.16
2023-03-11T22:42:14.431Z,99416.38
2023-03-11T22:45:16.279Z,99404.25
2023-03-11T22:48:18.228Z,99391.41
2023-03-11T22:51:20.156Z,99414.75
2023-03-11T22:54:21.962Z,99434.69
2023-03-11T22:57:24.002Z,99438.16
2023-03-11T23:00:25.777Z,99438.25
2023-03-11T23:03:27.807Z,99451.22
2023-03-11T23:06:29.714Z,99454.75
2023-03-11T23:09:31.483Z,99457.31
2023-03-11T23:12:34.201Z,99422.78
2023-03-11T23:15:36.519Z,99474.59
2023-03-11T23:18:39.113Z,99478.03
2023-03-11T23:21:40.976Z,99482.34
2023-03-11T23:24:42.662Z,99469.41
2023-03-11T23:27:45.830Z,99486.66
2023-03-11T23:30:47.660Z,99484.97
2023-03-11T23:33:49.822Z,99487.56
2023-03-11T23:36:51.610Z,99488.47
2023-03-11T23:39:53.362Z,99488.50
2023-03-11T23:42:55.448Z,99502.31
2023-03-11T23:45:57.197Z,99460.00
2023-03-11T23:49:00.892Z,99508.38
2023-03-11T23:52:02.656Z,99494.53
2023-03-11T23:55:04.917Z,99510.94
2023-03-11T23:58:07.033Z,99528.19
